EGPI

Islay Airport

Port Ellen, United Kingdom
METAR EGPI 242350Z AUTO 23010KT 9999 // FEW024/// 07/06 Q1004
Observed Flight Rules
Apr-24 @ 23:50 UTC (44 minutes ago) Visual Flight Rules
Wind Visibility Clouds
230° at 10 knots 10,000+ meters
  • Few at 2,400' AGL
Temperatures Readings
Current 7°C / 45°F
Dewpoint 6°C / 43°F
Humidity 93%
Altimeter 29.65" Hg
Pressure 1004 hPa
Elevation 18
METAR EGPI 242350Z AUTO 23010KT 9999 // FEW024/// 07/06 Q1004
Observed Flight Rules
Apr-24 @ 23:50 UTC
(44 minutes ago)
VFR
Wind Visibility
230° at 10 knots 10,000+ meters
Clouds
  • Few at 2,400' AGL
Temperature Dewpoint
7°C / 45°F 6°C / 43°F
Humidity Altimeter Pressure
93% 29.65" Hg 1004 hPa